Time;durP1;ratioP1;P1;durP2;ratioP2;P2;SDS_P1;SDS_P2;PMS_P1;PMS_P2;Temp;Humidity;BMP_temperature;BMP_pressure;BME280_temperature;BME280_humidity;BME280_pressure;Samples;Min_cycle;Max_cycle;Signal;HPM_P1;HPM_P2
2022/10/28 00:01:15;;;;;;;9.53;4.63;;;18.00;99.90;;;;;;5054918;28;20394;-80
2022/10/28 00:03:43;;;;;;;9.13;4.63;;;18.00;99.90;;;;;;5054738;28;20767;-80
2022/10/28 00:06:12;;;;;;;7.07;4.57;;;18.00;99.90;;;;;;5054613;28;20481;-81
2022/10/28 00:08:38;;;;;;;12.50;4.63;;;18.00;99.90;;;;;;5054981;28;20411;-80
2022/10/28 00:11:10;;;;;;;15.20;4.87;;;18.00;99.90;;;;;;5054959;28;20408;-80
2022/10/28 00:13:36;;;;;;;6.73;4.37;;;18.00;99.90;;;;;;5054976;28;20370;-80
2022/10/28 00:16:20;;;;;;;9.93;4.50;;;18.00;99.90;;;;;;5069881;28;20414;-80
2022/10/28 00:18:47;;;;;;;9.70;3.93;;;18.00;99.90;;;;;;5053726;28;20981;-81
2022/10/28 00:21:16;;;;;;;9.50;6.40;;;18.00;99.90;;;;;;5036444;28;20913;-81
2022/10/28 00:23:43;;;;;;;6.53;3.80;;;17.90;99.90;;;;;;5052528;28;20379;-84
2022/10/28 00:26:10;;;;;;;13.07;4.83;;;18.00;99.90;;;;;;5048795;28;20598;-84
2022/10/28 00:28:40;;;;;;;7.20;4.10;;;18.00;99.90;;;;;;5050608;28;20501;-83
2022/10/28 00:31:07;;;;;;;8.20;4.47;;;18.00;99.90;;;;;;5033589;28;20440;-84
2022/10/28 00:33:33;;;;;;;10.20;3.97;;;18.00;99.90;;;;;;5050721;28;20432;-81
2022/10/28 00:36:23;;;;;;;6.17;4.13;;;18.00;99.90;;;;;;5065658;28;20501;-82
2022/10/28 00:38:51;;;;;;;9.70;4.40;;;18.00;99.90;;;;;;5066863;28;20205;-81
2022/10/28 00:41:21;;;;;;;12.47;4.93;;;18.00;99.90;;;;;;5054105;28;20561;-81
2022/10/28 00:43:49;;;;;;;8.50;4.00;;;18.00;99.90;;;;;;5036219;28;20405;-81
2022/10/28 00:46:15;;;;;;;14.17;5.10;;;18.10;99.90;;;;;;5053574;28;20404;-81
2022/10/28 00:48:44;;;;;;;11.20;4.90;;;18.10;99.90;;;;;;5054274;28;20881;-80
2022/10/28 00:51:09;;;;;;;11.03;4.23;;;18.00;99.90;;;;;;5053967;28;20239;-85
2022/10/28 00:53:37;;;;;;;12.57;4.13;;;18.00;99.90;;;;;;5052582;28;20391;-81
2022/10/28 00:56:04;;;;;;;15.30;4.40;;;18.10;99.90;;;;;;5069286;28;20182;-81
2022/10/28 00:58:30;;;;;;;16.40;4.70;;;18.10;99.90;;;;;;5051892;28;20491;-81
2022/10/28 01:00:56;;;;;;;6.37;3.93;;;18.10;99.90;;;;;;5068853;28;20424;-81
2022/10/28 01:03:22;;;;;;;6.97;3.97;;;18.10;99.90;;;;;;5052267;28;20431;-81
2022/10/28 01:05:50;;;;;;;6.80;4.00;;;18.10;99.90;;;;;;5053792;28;20177;-81
2022/10/28 01:08:16;;;;;;;12.00;4.23;;;18.10;99.90;;;;;;5035501;28;20390;-81
2022/10/28 01:11:06;;;;;;;10.37;4.93;;;18.10;99.90;;;;;;5069029;28;20394;-81
2022/10/28 01:13:39;;;;;;;8.73;4.33;;;18.10;99.90;;;;;;5053268;28;20394;-80
2022/10/28 01:16:12;;;;;;;10.93;3.97;;;18.10;99.90;;;;;;5053164;28;20441;-80
2022/10/28 01:18:56;;;;;;;8.73;4.03;;;18.10;99.90;;;;;;5053341;28;20842;-80
2022/10/28 01:21:42;;;;;;;12.73;4.07;;;18.00;99.90;;;;;;5035219;28;20428;-81
2022/10/28 01:24:37;;;;;;;10.43;4.17;;;18.10;99.90;;;;;;5053261;28;20798;-81
2022/10/28 01:27:30;;;;;;;9.73;4.43;;;18.10;99.90;;;;;;5053505;28;20378;-80
2022/10/28 01:30:13;;;;;;;7.63;4.37;;;18.00;99.90;;;;;;5053149;28;20761;-83
2022/10/28 01:32:54;;;;;;;13.07;5.33;;;18.00;99.90;;;;;;5057756;28;20399;-81
2022/10/28 01:35:48;;;;;;;8.00;5.60;;;18.00;99.90;;;;;;5073163;28;20409;-81
2022/10/28 01:38:19;;;;;;;10.37;4.30;;;18.00;99.90;;;;;;5073110;28;20421;-81
2022/10/28 01:41:12;;;;;;;9.03;4.77;;;17.90;99.90;;;;;;5071923;28;20948;-81
2022/10/28 01:43:37;;;;;;;9.13;4.50;;;17.90;99.90;;;;;;5073062;28;20461;-81
2022/10/28 01:46:09;;;;;;;8.67;4.40;;;17.80;99.90;;;;;;5073078;28;20761;-81
2022/10/28 01:48:52;;;;;;;7.43;4.40;;;17.80;99.90;;;;;;5073006;28;20171;-81
2022/10/28 01:51:46;;;;;;;12.53;4.47;;;17.70;99.90;;;;;;5072736;28;20369;-81
2022/10/28 01:54:17;;;;;;;14.60;4.97;;;17.70;99.90;;;;;;5070859;28;20405;-80
2022/10/28 01:56:45;;;;;;;9.57;4.80;;;17.70;99.90;;;;;;5072354;28;20418;-80
2022/10/28 01:59:24;;;;;;;10.03;4.20;;;17.60;99.90;;;;;;5058190;28;20453;-81
2022/10/28 02:01:50;;;;;;;10.03;4.30;;;17.60;99.90;;;;;;5073103;28;20399;-84
2022/10/28 02:04:15;;;;;;;10.67;4.93;;;17.60;99.90;;;;;;5055177;28;20439;-82
2022/10/28 02:06:45;;;;;;;14.43;4.90;;;17.60;99.90;;;;;;5073336;28;20390;-80
2022/10/28 02:09:47;;;;;;;18.30;6.00;;;17.60;99.90;;;;;;5073157;28;20177;-81
2022/10/28 02:12:29;;;;;;;10.33;4.10;;;17.50;99.90;;;;;;5055477;28;20449;-81
2022/10/28 02:15:01;;;;;;;9.63;5.40;;;17.50;99.90;;;;;;5055125;28;20482;-80
2022/10/28 02:17:45;;;;;;;8.10;4.43;;;17.50;99.90;;;;;;5054773;28;20506;-80
2022/10/28 02:20:25;;;;;;;10.87;5.20;;;17.40;99.90;;;;;;5073163;28;20407;-81
2022/10/28 02:22:57;;;;;;;13.23;4.80;;;17.40;99.90;;;;;;5055187;28;20418;-80
2022/10/28 02:25:32;;;;;;;11.33;5.20;;;17.40;99.90;;;;;;5072940;28;20471;-82
2022/10/28 02:27:59;;;;;;;11.40;4.30;;;17.40;99.90;;;;;;5072733;28;20399;-81
2022/10/28 02:30:32;;;;;;;8.80;4.07;;;17.30;99.90;;;;;;5054526;28;20746;-81
2022/10/28 02:33:01;;;;;;;11.00;4.07;;;17.30;99.90;;;;;;5054831;28;20411;-81
2022/10/28 02:35:43;;;;;;;7.53;4.00;;;17.20;99.90;;;;;;5072432;28;20410;-81
2022/10/28 02:38:14;;;;;;;9.50;4.90;;;17.20;99.90;;;;;;5072247;28;20545;-81
2022/10/28 02:40:43;;;;;;;8.77;5.20;;;17.10;99.90;;;;;;5055326;28;20886;-81
2022/10/28 02:43:11;;;;;;;8.73;4.80;;;17.10;99.90;;;;;;5058799;28;20414;-80
2022/10/28 02:45:43;;;;;;;9.10;5.20;;;17.10;99.90;;;;;;5076416;28;20544;-80
2022/10/28 02:48:17;;;;;;;10.87;4.50;;;17.00;99.90;;;;;;5076633;28;20445;-81
2022/10/28 02:50:49;;;;;;;11.20;4.47;;;17.00;99.90;;;;;;5058303;28;20473;-80
2022/10/28 02:53:20;;;;;;;10.10;5.67;;;17.00;99.90;;;;;;5076371;28;20399;-80
2022/10/28 02:55:51;;;;;;;11.57;4.40;;;17.00;99.90;;;;;;5058575;28;20454;-80
2022/10/28 02:58:17;;;;;;;12.60;5.60;;;17.00;99.90;;;;;;5076113;28;20994;-86
2022/10/28 03:00:44;;;;;;;13.23;4.87;;;16.90;99.90;;;;;;5058212;28;20433;-82
2022/10/28 03:03:10;;;;;;;8.30;4.27;;;17.00;99.90;;;;;;5076284;28;20405;-80
2022/10/28 03:05:35;;;;;;;10.23;4.10;;;16.90;99.90;;;;;;5075725;28;20419;-80
2022/10/28 03:08:01;;;;;;;9.23;5.20;;;17.00;99.90;;;;;;5041520;28;20223;-80
2022/10/28 03:10:27;;;;;;;9.37;4.40;;;16.90;99.90;;;;;;5041410;28;20177;-81
2022/10/28 03:12:52;;;;;;;7.07;4.20;;;16.90;99.90;;;;;;5076244;28;20591;-80
2022/10/28 03:15:18;;;;;;;10.40;4.80;;;16.90;99.90;;;;;;5024737;28;20181;-86
2022/10/28 03:17:43;;;;;;;10.00;4.90;;;16.80;99.90;;;;;;5058065;28;20208;-80
2022/10/28 03:20:10;;;;;;;10.10;4.83;;;16.80;99.90;;;;;;5057955;28;20261;-81
2022/10/28 03:22:35;;;;;;;14.03;4.40;;;16.70;99.90;;;;;;5057096;28;20739;-81
2022/10/28 03:25:01;;;;;;;10.17;5.00;;;16.70;99.90;;;;;;5040853;28;20494;-81
2022/10/28 03:27:26;;;;;;;7.47;4.67;;;16.70;99.90;;;;;;5058345;28;20184;-81
2022/10/28 03:29:52;;;;;;;12.17;4.80;;;16.60;99.90;;;;;;5075826;28;20185;-81
2022/10/28 03:32:18;;;;;;;12.90;4.60;;;16.60;99.90;;;;;;5058047;28;20181;-81
2022/10/28 03:34:43;;;;;;;8.30;4.30;;;16.60;99.90;;;;;;5057565;28;20532;-80
2022/10/28 03:37:09;;;;;;;15.63;5.73;;;16.60;99.90;;;;;;5057734;28;20181;-81
2022/10/28 03:39:35;;;;;;;21.97;5.13;;;16.50;99.90;;;;;;5057405;28;20184;-81
2022/10/28 03:42:00;;;;;;;8.70;5.00;;;16.50;99.90;;;;;;5075607;28;20177;-81
2022/10/28 03:44:26;;;;;;;16.03;4.37;;;16.50;99.90;;;;;;5074947;28;20238;-81
2022/10/28 03:46:51;;;;;;;9.30;5.10;;;16.50;99.90;;;;;;5040475;28;20536;-81
2022/10/28 03:49:17;;;;;;;10.37;4.60;;;16.50;99.90;;;;;;5056843;28;20668;-80
2022/10/28 03:51:43;;;;;;;8.47;4.93;;;16.40;99.90;;;;;;5056856;28;20200;-81
2022/10/28 03:54:08;;;;;;;16.70;5.30;;;16.50;99.90;;;;;;5057259;28;20267;-80
2022/10/28 03:56:34;;;;;;;12.30;5.87;;;16.40;99.90;;;;;;5040590;28;20188;-80
2022/10/28 03:58:59;;;;;;;13.07;5.33;;;16.40;99.90;;;;;;5036604;28;20636;-80
2022/10/28 04:01:25;;;;;;;11.53;4.67;;;16.40;99.90;;;;;;5053595;28;20213;-80
2022/10/28 04:03:50;;;;;;;12.57;6.17;;;16.40;99.90;;;;;;5054064;28;20252;-80
2022/10/28 04:06:16;;;;;;;11.03;5.50;;;16.40;99.90;;;;;;5053816;28;20275;-80
2022/10/28 04:08:42;;;;;;;13.87;5.63;;;16.40;99.90;;;;;;5052789;28;20189;-80
2022/10/28 04:11:07;;;;;;;16.60;6.07;;;16.40;99.90;;;;;;5054323;28;20665;-82
2022/10/28 04:13:33;;;;;;;9.80;5.73;;;16.50;99.90;;;;;;5052673;28;20657;-80
2022/10/28 04:16:00;;;;;;;10.80;5.30;;;16.50;99.90;;;;;;5052874;28;20290;-80
2022/10/28 04:18:26;;;;;;;9.50;5.03;;;16.50;99.90;;;;;;5053497;28;20449;-80
2022/10/28 04:20:52;;;;;;;12.60;5.77;;;16.50;99.90;;;;;;5052667;28;20432;-80
2022/10/28 04:23:18;;;;;;;9.63;4.83;;;16.50;99.90;;;;;;5053936;28;20235;-80
2022/10/28 04:25:44;;;;;;;12.93;5.87;;;16.50;99.90;;;;;;5053440;28;20315;-80
2022/10/28 04:28:09;;;;;;;17.77;6.17;;;16.60;99.90;;;;;;5052625;28;20432;-80
2022/10/28 04:30:35;;;;;;;11.43;5.60;;;16.50;99.90;;;;;;5051980;28;20185;-80
2022/10/28 04:33:00;;;;;;;17.20;5.60;;;16.50;99.90;;;;;;5036136;28;20256;-80
2022/10/28 04:35:26;;;;;;;13.63;5.40;;;16.60;99.90;;;;;;5052399;28;20268;-80
2022/10/28 04:37:51;;;;;;;6.63;5.20;;;16.60;99.90;;;;;;5053795;28;20677;-80
2022/10/28 04:40:17;;;;;;;8.67;5.40;;;16.60;99.90;;;;;;5053221;28;20181;-80
2022/10/28 04:42:43;;;;;;;7.27;5.07;;;16.60;99.90;;;;;;5051587;28;20192;-83
2022/10/28 04:45:09;;;;;;;14.10;5.00;;;16.60;99.90;;;;;;5045852;28;20687;-82
2022/10/28 04:47:34;;;;;;;11.47;6.53;;;16.50;99.90;;;;;;5046258;28;20196;-81
2022/10/28 04:50:00;;;;;;;8.70;5.20;;;16.50;99.90;;;;;;5051229;28;20412;-81
2022/10/28 04:52:26;;;;;;;11.87;4.73;;;16.50;99.90;;;;;;5034755;28;20260;-80
2022/10/28 04:54:51;;;;;;;9.70;5.00;;;16.50;99.90;;;;;;5052401;28;20178;-80
2022/10/28 04:57:17;;;;;;;9.73;4.50;;;16.50;99.90;;;;;;5035612;28;20633;-80
2022/10/28 04:59:42;;;;;;;8.30;5.53;;;16.60;99.90;;;;;;4997557;28;1089403;-80
2022/10/28 05:02:08;;;;;;;9.83;4.87;;;16.60;99.90;;;;;;5052459;28;20190;-80
2022/10/28 05:04:33;;;;;;;11.83;5.03;;;16.60;99.90;;;;;;5052251;28;20583;-80
2022/10/28 05:06:59;;;;;;;15.70;5.97;;;16.60;99.90;;;;;;5052900;28;20178;-81
2022/10/28 05:09:25;;;;;;;13.30;5.27;;;16.70;99.90;;;;;;5052251;28;20664;-86
2022/10/28 05:11:50;;;;;;;15.60;5.40;;;16.60;99.90;;;;;;5052253;28;20181;-80
2022/10/28 05:14:16;;;;;;;17.97;5.67;;;16.60;99.90;;;;;;5035827;28;20182;-80
2022/10/28 05:16:42;;;;;;;8.43;5.53;;;16.60;99.90;;;;;;5032648;28;20181;-80
2022/10/28 05:19:07;;;;;;;9.07;5.10;;;16.60;99.90;;;;;;5052885;28;20228;-80
2022/10/28 05:21:33;;;;;;;10.20;6.20;;;16.70;99.90;;;;;;5048067;28;20184;-83
2022/10/28 05:23:58;;;;;;;10.70;5.27;;;16.70;99.90;;;;;;5046813;28;20276;-81
2022/10/28 05:26:24;;;;;;;13.43;5.63;;;16.70;99.90;;;;;;5032302;28;20196;-80
2022/10/28 05:28:50;;;;;;;13.53;4.73;;;16.70;99.90;;;;;;5047439;28;20192;-81
2022/10/28 05:31:17;;;;;;;12.63;4.87;;;16.70;99.90;;;;;;5048584;28;20545;-80
2022/10/28 05:33:43;;;;;;;11.07;5.03;;;16.70;99.90;;;;;;5053062;28;20431;-80
2022/10/28 05:36:09;;;;;;;10.27;4.80;;;16.70;99.90;;;;;;5053646;28;20408;-80
2022/10/28 05:38:34;;;;;;;12.63;5.87;;;16.70;99.90;;;;;;5052337;28;20450;-80
2022/10/28 05:41:00;;;;;;;11.80;4.63;;;16.70;99.90;;;;;;5052081;28;20731;-80
2022/10/28 05:43:26;;;;;;;9.40;5.63;;;16.60;99.90;;;;;;5053451;28;20188;-80
2022/10/28 05:45:55;;;;;;;8.70;4.93;;;16.60;99.90;;;;;;5053452;28;20173;-79
2022/10/28 05:48:22;;;;;;;8.13;5.40;;;16.50;99.90;;;;;;5050839;28;21130;-83
2022/10/28 05:50:47;;;;;;;12.20;5.57;;;16.50;99.90;;;;;;5030981;28;20796;-81
2022/10/28 05:53:13;;;;;;;11.20;4.90;;;16.50;99.90;;;;;;5047534;28;20505;-85
2022/10/28 05:55:38;;;;;;;9.10;4.53;;;16.50;99.90;;;;;;5047917;28;20173;-82
2022/10/28 05:58:04;;;;;;;10.90;5.40;;;16.50;99.90;;;;;;5053041;28;20669;-82
2022/10/28 06:00:30;;;;;;;14.77;6.37;;;16.50;99.90;;;;;;5052576;28;20549;-80
2022/10/28 06:03:09;;;;;;;11.00;5.70;;;16.50;99.90;;;;;;5070113;28;20561;-80
2022/10/28 06:05:36;;;;;;;15.10;6.50;;;16.60;99.90;;;;;;5073118;28;20400;-80
2022/10/28 06:08:04;;;;;;;16.60;6.13;;;16.60;99.90;;;;;;5073085;28;20390;-80
2022/10/28 06:10:29;;;;;;;14.00;5.20;;;16.60;99.90;;;;;;5072466;28;20399;-81
2022/10/28 06:12:56;;;;;;;11.23;5.57;;;16.60;99.90;;;;;;5072849;28;20389;-80
2022/10/28 06:15:21;;;;;;;16.27;5.00;;;16.50;99.90;;;;;;5073005;28;20519;-80
2022/10/28 06:17:48;;;;;;;12.00;5.60;;;16.60;99.90;;;;;;5058852;28;20461;-80
2022/10/28 06:20:14;;;;;;;10.13;5.60;;;16.60;99.90;;;;;;5076818;28;20213;-80
2022/10/28 06:22:53;;;;;;;14.27;5.70;;;16.60;99.90;;;;;;5077408;28;20469;-80
2022/10/28 06:25:21;;;;;;;9.97;5.17;;;16.60;99.90;;;;;;5059653;28;20430;-80
2022/10/28 06:27:57;;;;;;;14.67;4.57;;;16.60;99.90;;;;;;5076493;28;20503;-80
2022/10/28 06:30:24;;;;;;;22.30;5.50;;;16.60;99.90;;;;;;5059825;28;20404;-80
2022/10/28 06:32:50;;;;;;;16.50;6.03;;;16.60;99.90;;;;;;5059461;28;21299;-80
2022/10/28 06:35:16;;;;;;;11.40;5.27;;;16.60;99.90;;;;;;5076741;28;20510;-82
2022/10/28 06:37:41;;;;;;;11.13;4.93;;;16.70;99.90;;;;;;5041636;28;20492;-82
2022/10/28 06:40:07;;;;;;;10.07;5.33;;;16.70;99.90;;;;;;5058629;28;20219;-82
2022/10/28 06:42:33;;;;;;;15.90;5.13;;;16.70;99.90;;;;;;5058477;28;20238;-82
2022/10/28 06:44:59;;;;;;;17.47;6.00;;;16.70;99.90;;;;;;5025597;28;20799;-82
2022/10/28 06:47:24;;;;;;;12.93;5.20;;;16.80;99.90;;;;;;5058374;28;20238;-82
2022/10/28 06:49:50;;;;;;;10.07;5.80;;;16.80;99.90;;;;;;5041687;28;20551;-82
2022/10/28 06:52:15;;;;;;;8.70;4.87;;;16.80;99.90;;;;;;5059601;28;20183;-82
2022/10/28 06:54:42;;;;;;;12.43;5.17;;;16.80;99.90;;;;;;5059007;28;20187;-82
2022/10/28 06:57:08;;;;;;;8.40;5.33;;;16.80;99.90;;;;;;5042397;28;20177;-82
2022/10/28 06:59:34;;;;;;;10.40;5.23;;;16.80;99.90;;;;;;5075643;28;20466;-83
2022/10/28 07:01:59;;;;;;;8.13;4.87;;;16.80;99.90;;;;;;5073866;28;20406;-82
2022/10/28 07:04:25;;;;;;;8.93;4.30;;;16.90;99.90;;;;;;5051526;28;20628;-82
2022/10/28 07:06:54;;;;;;;10.10;4.90;;;16.90;99.90;;;;;;5032429;28;20552;-83
2022/10/28 07:09:20;;;;;;;19.73;5.37;;;17.00;99.90;;;;;;5051370;28;20230;-87
2022/10/28 07:11:48;;;;;;;10.20;5.37;;;17.00;99.90;;;;;;5071481;28;20499;-87
2022/10/28 07:14:13;;;;;;;13.57;5.40;;;17.10;99.90;;;;;;5038188;28;20213;-87
2022/10/28 07:16:40;;;;;;;13.63;5.70;;;17.10;99.90;;;;;;5068764;28;20451;-87
2022/10/28 07:19:06;;;;;;;9.33;5.10;;;17.10;99.90;;;;;;5076000;28;20200;-88
2022/10/28 07:21:32;;;;;;;10.23;4.97;;;17.20;99.90;;;;;;5049068;28;20424;-87
2022/10/28 07:23:57;;;;;;;21.30;5.60;;;17.20;99.90;;;;;;5055000;28;20201;-87
2022/10/28 07:26:23;;;;;;;9.73;4.73;;;17.20;99.90;;;;;;5071118;28;20185;-87
2022/10/28 07:28:49;;;;;;;10.77;5.57;;;17.30;99.90;;;;;;5038149;28;20177;-87
2022/10/28 07:31:15;;;;;;;8.17;5.70;;;17.40;99.90;;;;;;5054412;28;20928;-87
2022/10/28 07:33:41;;;;;;;18.63;5.40;;;17.40;99.90;;;;;;5055374;28;20485;-88
2022/10/28 07:36:07;;;;;;;9.53;5.50;;;17.40;99.90;;;;;;5071657;28;20789;-85
2022/10/28 07:38:33;;;;;;;14.10;5.20;;;17.50;99.90;;;;;;5071313;28;20466;-85
2022/10/28 07:41:06;;;;;;;10.53;4.80;;;17.60;99.90;;;;;;5070646;28;20398;-85
2022/10/28 07:43:38;;;;;;;15.27;5.47;;;17.70;99.90;;;;;;5037705;28;20414;-84
2022/10/28 07:46:05;;;;;;;10.63;5.57;;;17.80;99.90;;;;;;5070890;28;20849;-85
2022/10/28 07:48:31;;;;;;;13.13;5.60;;;17.80;99.90;;;;;;5054988;28;20424;-84
2022/10/28 07:51:00;;;;;;;9.50;5.13;;;17.90;99.90;;;;;;5057173;28;20382;-84
2022/10/28 07:53:26;;;;;;;8.17;3.90;;;17.90;99.90;;;;;;5076054;28;20382;-85
2022/10/28 07:56:02;;;;;;;12.03;4.30;;;18.00;99.90;;;;;;5040333;28;20390;-84
2022/10/28 07:58:28;;;;;;;13.90;4.60;;;18.10;99.90;;;;;;5058708;28;20232;-85
2022/10/28 08:00:54;;;;;;;11.90;4.77;;;18.20;99.90;;;;;;5057139;28;20435;-85
2022/10/28 08:03:20;;;;;;;15.13;5.13;;;18.20;99.90;;;;;;5075396;28;20370;-85
2022/10/28 08:05:46;;;;;;;12.63;4.67;;;18.20;99.90;;;;;;5075109;28;20592;-85
2022/10/28 08:08:12;;;;;;;12.30;4.60;;;18.30;99.90;;;;;;5057814;28;20450;-85
2022/10/28 08:10:38;;;;;;;18.80;4.27;;;18.40;99.90;;;;;;5056850;28;20415;-85
2022/10/28 08:13:05;;;;;;;11.43;5.20;;;18.30;99.90;;;;;;5056926;28;20409;-85
2022/10/28 08:15:30;;;;;;;10.53;4.63;;;18.40;99.90;;;;;;5057490;28;20264;-83
2022/10/28 08:17:56;;;;;;;8.70;4.00;;;18.30;99.90;;;;;;5057597;28;20898;-85
2022/10/28 08:20:22;;;;;;;16.60;4.73;;;18.40;99.90;;;;;;5058250;28;20185;-85
2022/10/28 08:22:48;;;;;;;12.07;4.40;;;18.30;99.90;;;;;;5060492;28;20533;-84
2022/10/28 08:25:14;;;;;;;15.07;5.10;;;18.40;99.90;;;;;;5025652;28;20196;-85
2022/10/28 08:27:42;;;;;;;10.90;4.37;;;18.40;99.90;;;;;;5040267;28;20423;-86
2022/10/28 08:30:08;;;;;;;11.00;4.27;;;18.40;99.90;;;;;;5037220;28;20181;-85
2022/10/28 08:32:37;;;;;;;10.77;4.63;;;18.50;99.90;;;;;;5064599;28;20414;-85
2022/10/28 08:35:02;;;;;;;9.33;5.30;;;18.50;99.90;;;;;;5061507;28;20414;-85
2022/10/28 08:37:28;;;;;;;12.33;4.80;;;18.50;99.90;;;;;;5046640;28;20418;-86
2022/10/28 08:39:54;;;;;;;11.60;5.00;;;18.50;99.90;;;;;;5033193;28;20230;-85
2022/10/28 08:42:48;;;;;;;12.43;4.93;;;18.60;99.90;;;;;;5044916;28;20173;-86
2022/10/28 08:45:19;;;;;;;12.53;4.50;;;18.70;99.90;;;;;;5044339;28;20227;-85
2022/10/28 08:48:30;;;;;;;12.23;5.13;;;18.80;99.90;;;;;;5035944;28;20461;-85
2022/10/28 08:51:02;;;;;;;18.00;5.50;;;18.70;99.90;;;;;;5008358;28;20977;-86
2022/10/28 08:53:39;;;;;;;12.10;5.00;;;18.70;99.90;;;;;;5057015;28;20392;-85
2022/10/28 08:56:13;;;;;;;12.53;5.10;;;18.80;99.90;;;;;;5075480;28;20475;-85
2022/10/28 08:58:42;;;;;;;10.67;4.60;;;18.80;99.90;;;;;;5056094;28;20478;-86
2022/10/28 09:01:18;;;;;;;12.03;5.00;;;18.90;99.90;;;;;;5055983;28;20943;-85
2022/10/28 09:03:47;;;;;;;8.50;4.50;;;19.10;99.90;;;;;;5055821;28;20389;-85
2022/10/28 09:06:12;;;;;;;10.07;5.47;;;19.20;99.90;;;;;;5074303;28;20407;-85
2022/10/28 09:08:45;;;;;;;11.30;4.10;;;19.40;99.90;;;;;;5056149;28;20937;-85
2022/10/28 09:11:23;;;;;;;11.47;4.77;;;19.50;99.90;;;;;;5055996;28;20187;-85
2022/10/28 09:14:00;;;;;;;18.40;5.10;;;19.70;99.90;;;;;;5074679;28;20494;-85
2022/10/28 09:16:47;;;;;;;9.43;4.37;;;19.80;99.90;;;;;;5074078;28;20403;-85
2022/10/28 09:19:36;;;;;;;10.63;4.17;;;20.00;99.90;;;;;;5055753;28;20474;-85
2022/10/28 09:22:51;;;;;;;9.00;4.40;;;20.20;99.90;;;;;;5045057;28;20411;-85
2022/10/28 09:25:30;;;;;;;7.90;4.10;;;20.30;99.90;;;;;;5030346;28;20419;-85
2022/10/28 09:28:06;;;;;;;12.57;4.60;;;20.30;99.90;;;;;;5055377;28;20409;-85
2022/10/28 09:31:03;;;;;;;9.03;5.50;;;20.40;99.90;;;;;;5057435;28;20526;-86
2022/10/28 09:33:38;;;;;;;11.90;4.97;;;20.60;99.90;;;;;;5035711;28;20463;-86
2022/10/28 09:36:10;;;;;;;9.17;5.00;;;21.00;99.90;;;;;;5052807;28;20741;-86
2022/10/28 09:38:37;;;;;;;11.30;4.10;;;21.40;99.90;;;;;;5053565;28;20447;-86
2022/10/28 09:41:12;;;;;;;9.20;4.37;;;21.60;99.90;;;;;;5068578;28;20419;-84
2022/10/28 09:43:46;;;;;;;9.27;4.30;;;21.70;99.90;;;;;;5035309;28;20386;-83
2022/10/28 09:46:15;;;;;;;17.67;4.00;;;21.70;99.90;;;;;;5035687;28;20469;-87
2022/10/28 09:48:45;;;;;;;12.13;4.40;;;22.00;99.90;;;;;;5035581;28;20424;-87
2022/10/28 09:51:43;;;;;;;9.23;4.67;;;22.20;99.90;;;;;;5052928;28;20746;-87
2022/10/28 09:54:11;;;;;;;8.87;4.77;;;22.50;99.90;;;;;;5035828;28;20443;-86
2022/10/28 09:56:37;;;;;;;12.70;4.20;;;22.90;99.90;;;;;;5035698;28;20946;-87
2022/10/28 09:59:03;;;;;;;13.20;3.90;;;23.10;99.90;;;;;;5053206;28;20515;-88
2022/10/28 10:01:36;;;;;;;9.23;3.93;;;23.10;99.90;;;;;;5037895;28;20855;-86
2022/10/28 10:04:11;;;;;;;10.17;3.60;;;23.20;99.90;;;;;;5055302;28;20423;-86
2022/10/28 10:06:41;;;;;;;11.07;4.27;;;23.40;99.90;;;;;;5055488;28;20717;-87
2022/10/28 10:09:25;;;;;;;12.30;3.80;;;23.60;99.90;;;;;;5055025;28;20420;-87
2022/10/28 10:11:54;;;;;;;8.80;4.00;;;23.60;99.90;;;;;;5055333;28;20941;-87
2022/10/28 10:14:37;;;;;;;9.40;3.77;;;23.80;99.90;;;;;;5055521;28;20489;-87
2022/10/28 10:17:09;;;;;;;16.43;4.83;;;24.00;99.90;;;;;;5073476;28;20431;-87
2022/10/28 10:19:57;;;;;;;8.63;3.73;;;24.20;99.90;;;;;;5057527;28;20462;-87
2022/10/28 10:22:30;;;;;;;12.83;4.23;;;24.30;99.90;;;;;;5075475;28;20439;-87
2022/10/28 10:24:55;;;;;;;11.90;3.90;;;24.50;99.90;;;;;;5055851;28;20557;-88
2022/10/28 10:27:22;;;;;;;8.13;3.53;;;24.40;99.90;;;;;;5022497;28;20518;-87
2022/10/28 10:29:50;;;;;;;10.43;4.33;;;24.50;99.90;;;;;;5073031;28;20555;-87
2022/10/28 10:32:21;;;;;;;15.57;4.60;;;24.60;99.90;;;;;;5073480;28;20419;-87
2022/10/28 10:35:13;;;;;;;16.07;5.17;;;24.70;99.90;;;;;;5055206;28;20419;-87
2022/10/28 10:37:44;;;;;;;12.27;4.73;;;24.70;99.90;;;;;;5061087;28;20954;-87
2022/10/28 10:40:29;;;;;;;8.37;3.30;;;24.70;99.90;;;;;;5072129;28;20427;-87
2022/10/28 10:43:13;;;;;;;9.43;3.90;;;24.80;99.90;;;;;;5071926;28;20423;-87
2022/10/28 10:45:39;;;;;;;10.43;3.97;;;24.70;99.90;;;;;;5073139;28;20395;-87
2022/10/28 10:48:14;;;;;;;6.77;3.30;;;24.80;99.90;;;;;;5055045;28;21257;-87
2022/10/28 10:50:43;;;;;;;10.30;4.13;;;25.30;99.90;;;;;;5071789;28;20322;-87
2022/10/28 10:53:23;;;;;;;7.60;3.80;;;26.00;99.90;;;;;;5072876;28;20744;-87
2022/10/28 10:56:00;;;;;;;8.80;4.10;;;26.60;99.90;;;;;;5072959;28;20403;-87
2022/10/28 10:58:33;;;;;;;9.97;4.27;;;26.90;99.90;;;;;;5071436;28;20483;-87
2022/10/28 11:01:01;;;;;;;9.57;3.97;;;27.70;99.90;;;;;;5072378;28;20922;-87
2022/10/28 11:03:33;;;;;;;13.53;4.43;;;28.40;99.90;;;;;;5074949;28;20965;-88
2022/10/28 11:06:01;;;;;;;7.93;4.07;;;28.80;99.90;;;;;;5075208;28;20419;-87
2022/10/28 11:08:41;;;;;;;11.23;3.13;;;29.20;99.90;;;;;;5075214;28;20411;-87
2022/10/28 11:11:07;;;;;;;9.70;3.70;;;29.50;99.90;;;;;;5077066;28;20427;-87
2022/10/28 11:13:34;;;;;;;11.70;3.57;;;29.50;99.90;;;;;;5079927;28;20529;-88
2022/10/28 11:16:02;;;;;;;10.10;3.90;;;29.40;99.90;;;;;;5059677;28;20180;-85
2022/10/28 11:18:30;;;;;;;15.27;4.23;;;29.40;99.90;;;;;;5075961;28;20462;-87
2022/10/28 11:21:07;;;;;;;13.60;3.63;;;29.30;99.90;;;;;;5074694;28;20431;-85
2022/10/28 11:24:00;;;;;;;9.40;3.57;;;28.90;99.90;;;;;;5076243;28;20395;-86
2022/10/28 11:26:26;;;;;;;10.83;4.13;;;28.40;99.90;;;;;;5075051;28;20416;-86
2022/10/28 11:29:13;;;;;;;10.50;3.53;;;28.30;99.90;;;;;;5075967;28;20415;-86
2022/10/28 11:31:53;;;;;;;9.83;4.00;;;28.30;99.90;;;;;;5076123;28;20415;-85
2022/10/28 11:34:48;;;;;;;9.47;3.47;;;28.50;99.90;;;;;;5074690;28;20418;-85
2022/10/28 11:37:37;;;;;;;11.33;3.73;;;28.30;99.90;;;;;;5070637;28;20442;-85
2022/10/28 11:40:09;;;;;;;9.77;3.90;;;28.40;99.90;;;;;;5055136;28;20527;-85
2022/10/28 11:43:01;;;;;;;9.07;4.20;;;28.50;99.90;;;;;;5037983;28;20428;-85
2022/10/28 11:45:39;;;;;;;8.50;3.30;;;28.40;99.90;;;;;;5014824;28;20430;-85
2022/10/28 11:48:05;;;;;;;12.50;3.97;;;28.30;99.90;;;;;;5037548;28;20428;-87
2022/10/28 11:50:49;;;;;;;9.47;3.73;;;28.00;99.90;;;;;;5037843;28;20424;-87
2022/10/28 11:53:46;;;;;;;11.33;3.90;;;27.90;99.90;;;;;;5037695;28;20256;-86
2022/10/28 11:56:26;;;;;;;14.70;3.57;;;27.90;99.90;;;;;;5055366;28;20412;-85
2022/10/28 11:59:17;;;;;;;7.80;3.37;;;28.20;99.90;;;;;;5036751;28;20506;-83
2022/10/28 12:02:03;;;;;;;7.37;4.03;;;28.30;99.90;;;;;;5037242;28;20486;-83
2022/10/28 12:04:53;;;;;;;12.00;3.87;;;28.30;99.90;;;;;;5055108;28;20404;-83
2022/10/28 12:07:46;;;;;;;9.97;3.83;;;28.50;99.90;;;;;;5054938;28;20415;-83
2022/10/28 12:10:49;;;;;;;8.97;3.60;;;28.60;99.90;;;;;;5054105;28;20439;-78
2022/10/28 12:13:22;;;;;;;8.90;3.03;;;28.90;99.90;;;;;;5072294;28;20410;-78
2022/10/28 12:16:12;;;;;;;10.97;3.57;;;28.70;99.90;;;;;;5074789;28;20395;-81
2022/10/28 12:18:52;;;;;;;8.70;3.73;;;28.90;99.90;;;;;;5056568;28;20478;-81
2022/10/28 12:21:34;;;;;;;10.80;3.70;;;28.90;99.90;;;;;;5074883;28;20843;-81
2022/10/28 12:24:02;;;;;;;11.57;3.73;;;28.90;99.90;;;;;;5056311;28;20414;-81
2022/10/28 12:26:39;;;;;;;10.47;3.63;;;28.80;99.90;;;;;;5074415;28;20415;-81
2022/10/28 12:29:17;;;;;;;14.07;4.20;;;28.90;99.90;;;;;;5073490;28;20500;-81
2022/10/28 12:31:56;;;;;;;11.40;3.83;;;28.90;99.90;;;;;;5056628;28;20920;-81
2022/10/28 12:34:32;;;;;;;8.30;3.60;;;29.00;99.90;;;;;;5073913;28;20754;-81
2022/10/28 12:37:10;;;;;;;13.70;4.33;;;29.00;99.90;;;;;;5073649;28;20431;-81
2022/10/28 12:40:03;;;;;;;9.17;3.87;;;29.20;99.90;;;;;;5056353;28;20461;-81
2022/10/28 12:42:38;;;;;;;15.70;4.33;;;29.10;99.90;;;;;;5073965;28;20506;-81
2022/10/28 12:45:10;;;;;;;12.33;3.53;;;28.80;99.90;;;;;;5073911;28;20926;-80
2022/10/28 12:47:47;;;;;;;11.43;3.87;;;28.90;99.90;;;;;;5056198;28;20514;-81
2022/10/28 12:50:27;;;;;;;8.33;3.33;;;29.10;99.90;;;;;;5073433;28;21103;-81
2022/10/28 12:53:02;;;;;;;10.43;3.80;;;29.20;99.90;;;;;;5073589;28;20799;-81
2022/10/28 12:55:41;;;;;;;12.93;4.17;;;29.10;99.90;;;;;;5055884;28;20426;-81
2022/10/28 12:58:13;;;;;;;7.30;3.40;;;29.00;99.90;;;;;;5073110;28;20451;-82
2022/10/28 13:01:12;;;;;;;9.23;3.50;;;28.80;99.90;;;;;;5055830;28;20442;-83
2022/10/28 13:03:39;;;;;;;7.00;3.20;;;28.60;99.90;;;;;;5038534;28;20914;-82